createdAt,value
2018-04-24T00:01:05.789Z,10.45
2018-04-24T00:02:14.621Z,10.45
2018-04-24T00:03:23.460Z,10.42
2018-04-24T00:04:32.291Z,10.51
2018-04-24T00:05:41.500Z,10.45
2018-04-24T00:06:50.332Z,10.53
2018-04-24T00:07:59.437Z,10.42
2018-04-24T00:09:08.269Z,10.45
2018-04-24T00:10:17.104Z,10.47
2018-04-24T00:11:26.036Z,10.36
2018-04-24T00:12:34.870Z,10.38
2018-04-24T00:13:43.703Z,10.4
2018-04-24T00:14:52.536Z,10.4
2018-04-24T00:16:01.373Z,10.4
2018-04-24T00:17:10.475Z,10.34
2018-04-24T00:18:19.656Z,10.34
2018-04-24T00:19:28.413Z,10.44
2018-04-24T00:20:37.245Z,10.41
2018-04-24T00:21:46.078Z,10.3
2018-04-24T00:22:55.012Z,10.4
2018-04-24T00:24:03.848Z,10.38
2018-04-24T00:25:12.956Z,10.29
2018-04-24T00:26:21.787Z,10.25
2018-04-24T00:27:30.624Z,10.25
2018-04-24T00:28:39.453Z,10.15
2018-04-24T00:29:48.293Z,10.27
2018-04-24T00:30:57.129Z,10.15
2018-04-24T00:32:05.966Z,10.2
2018-04-24T00:33:14.792Z,10.11
2018-04-24T00:34:24.030Z,10.07
2018-04-24T00:35:32.779Z,10.11
2018-04-24T00:36:41.891Z,10.18
2018-04-24T00:37:50.725Z,10.22
2018-04-24T00:38:59.554Z,10.22
2018-04-24T00:40:08.659Z,10.05
2018-04-24T00:41:17.495Z,10.07
2018-04-24T00:42:26.326Z,10.04
2018-04-24T00:43:35.157Z,10.12
2018-04-24T00:44:43.992Z,10.04
2018-04-24T00:45:52.988Z,9.91
2018-04-24T00:47:01.813Z,9.97
2018-04-24T00:48:10.644Z,9.94
2018-04-24T00:49:19.477Z,9.96
2018-04-24T00:50:28.307Z,9.93
2018-04-24T00:51:37.339Z,9.94
2018-04-24T00:52:46.446Z,9.99
2018-04-24T00:53:55.277Z,9.96
2018-04-24T00:55:04.110Z,9.91
2018-04-24T00:56:12.941Z,9.97
2018-04-24T00:57:21.823Z,9.83
2018-04-24T00:58:30.657Z,9.91
2018-04-24T00:59:39.766Z,9.9
2018-04-24T01:00:48.874Z,9.79
2018-04-24T01:01:57.704Z,9.91
2018-04-24T01:03:06.862Z,9.9
2018-04-24T01:04:15.692Z,9.99
2018-04-24T01:05:24.529Z,9.93
2018-04-24T01:06:33.359Z,9.99
2018-04-24T01:07:42.470Z,9.93
2018-04-24T01:08:51.653Z,9.87
2018-04-24T01:10:00.486Z,9.89
2018-04-24T01:11:09.319Z,9.93
2018-04-24T01:12:18.425Z,9.83
2018-04-24T01:13:27.259Z,9.91
2018-04-24T01:14:36.092Z,9.9
2018-04-24T01:15:44.927Z,9.94
2018-04-24T01:16:53.758Z,9.87
2018-04-24T01:18:02.595Z,9.96
2018-04-24T01:19:11.424Z,9.94
2018-04-24T01:20:20.358Z,9.96
2018-04-24T01:21:29.191Z,9.97
2018-04-24T01:22:38.023Z,9.93
2018-04-24T01:23:46.858Z,9.99
2018-04-24T01:24:56.030Z,10.04
2018-04-24T01:26:04.864Z,9.93
2018-04-24T01:27:13.697Z,9.99
2018-04-24T01:28:22.527Z,9.99
2018-04-24T01:29:31.359Z,9.94
2018-04-24T01:30:40.192Z,10.09
2018-04-24T01:31:49.175Z,10.08
2018-04-24T01:32:58.007Z,10.14
2018-04-24T01:34:07.121Z,10.08
2018-04-24T01:35:15.958Z,10.12
2018-04-24T01:36:24.788Z,10.18
2018-04-24T01:37:33.821Z,10.09
2018-04-24T01:38:42.652Z,10.05
2018-04-24T01:39:51.484Z,10.01
2018-04-24T01:41:00.316Z,10.09
2018-04-24T01:42:09.149Z,10.11
2018-04-24T01:43:18.661Z,10.02
2018-04-24T01:44:27.494Z,9.99
2018-04-24T01:45:36.341Z,10.04
2018-04-24T01:46:45.436Z,10.01
2018-04-24T01:47:54.271Z,10.08
2018-04-24T01:49:03.253Z,10.11
2018-04-24T01:50:12.084Z,10.11
2018-04-24T01:51:20.922Z,10.09
2018-04-24T01:52:29.756Z,10.15
2018-04-24T01:53:38.592Z,10.11
2018-04-24T01:54:47.522Z,10.15
2018-04-24T01:55:56.354Z,10.09
2018-04-24T01:57:05.187Z,10.23
2018-04-24T01:58:14.021Z,10.12
2018-04-24T01:59:22.855Z,10.07
2018-04-24T02:00:32.514Z,10.12
2018-04-24T02:01:41.627Z,10.15
2018-04-24T02:02:50.467Z,10.15
2018-04-24T02:03:59.569Z,10.18
2018-04-24T02:05:08.677Z,10.14
2018-04-24T02:06:17.812Z,10.17
2018-04-24T02:07:26.924Z,10.2
2018-04-24T02:08:35.759Z,10.23
2018-04-24T02:09:44.590Z,10.17
2018-04-24T02:10:53.699Z,10.27
2018-04-24T02:12:02.631Z,10.17
2018-04-24T02:13:11.463Z,10.18
2018-04-24T02:14:20.569Z,10.23
2018-04-24T02:15:29.402Z,10.15
2018-04-24T02:16:38.234Z,10.17
2018-04-24T02:17:47.069Z,10.26
2018-04-24T02:18:55.898Z,10.32
2018-04-24T02:20:04.732Z,10.22
2018-04-24T02:21:13.840Z,10.2
2018-04-24T02:22:22.673Z,10.17
2018-04-24T02:23:31.614Z,10.23
2018-04-24T02:24:40.445Z,10.26
2018-04-24T02:25:49.278Z,10.26
2018-04-24T02:26:58.740Z,10.32
2018-04-24T02:28:08.124Z,10.4
2018-04-24T02:29:17.063Z,10.34
2018-04-24T02:30:25.897Z,10.33
2018-04-24T02:31:34.730Z,10.36
2018-04-24T02:32:43.839Z,10.3
2018-04-24T02:33:52.689Z,10.38
2018-04-24T02:35:01.953Z,10.27
2018-04-24T02:36:11.084Z,10.4
2018-04-24T02:37:20.474Z,10.44
2018-04-24T02:38:29.306Z,10.41
2018-04-24T02:39:38.139Z,10.44
2018-04-24T02:40:47.452Z,10.45
2018-04-24T02:41:56.585Z,10.38
2018-04-24T02:43:05.416Z,10.44
2018-04-24T02:44:14.522Z,10.45
2018-04-24T02:45:23.636Z,10.48
2018-04-24T02:46:32.470Z,10.52
2018-04-24T02:47:41.581Z,10.41
2018-04-24T02:48:50.695Z,10.44
2018-04-24T02:49:59.804Z,10.42
2018-04-24T02:51:08.926Z,10.59
2018-04-24T02:52:18.146Z,10.52
2018-04-24T02:53:27.254Z,10.47
2018-04-24T02:54:36.089Z,10.53
2018-04-24T02:55:44.926Z,10.55
2018-04-24T02:56:53.762Z,10.59
2018-04-24T02:58:03.169Z,10.66
2018-04-24T02:59:12.012Z,10.63
2018-04-24T03:00:21.118Z,10.66
2018-04-24T03:01:29.955Z,10.71
2018-04-24T03:02:38.791Z,10.64
2018-04-24T03:03:47.915Z,10.59
2018-04-24T03:04:57.022Z,10.63
2018-04-24T03:06:05.855Z,10.61
2018-04-24T03:07:14.686Z,10.64
2018-04-24T03:08:23.797Z,10.66
2018-04-24T03:09:32.790Z,10.71
2018-04-24T03:10:41.902Z,10.71
2018-04-24T03:11:51.049Z,10.78
2018-04-24T03:13:00.445Z,10.73
2018-04-24T03:14:10.205Z,10.71
2018-04-24T03:15:19.296Z,10.84
2018-04-24T03:16:28.402Z,10.78
2018-04-24T03:17:37.235Z,10.84
2018-04-24T03:18:46.064Z,10.81
2018-04-24T03:19:54.898Z,10.81
2018-04-24T03:21:03.831Z,10.74
2018-04-24T03:22:12.664Z,10.85
2018-04-24T03:23:21.499Z,10.82
2018-04-24T03:24:30.332Z,10.79
2018-04-24T03:25:39.165Z,10.86
2018-04-24T03:26:48.247Z,10.85
2018-04-24T03:27:57.635Z,10.82
2018-04-24T03:29:06.468Z,10.86
2018-04-24T03:30:15.301Z,10.96
2018-04-24T03:31:24.966Z,10.91
2018-04-24T03:32:34.284Z,10.97
2018-04-24T03:33:43.391Z,10.89
2018-04-24T03:34:52.226Z,10.92
2018-04-24T03:36:01.065Z,10.92
2018-04-24T03:37:09.897Z,10.86
2018-04-24T03:38:18.830Z,10.96
2018-04-24T03:39:27.667Z,10.91
2018-04-24T03:40:36.499Z,10.94
2018-04-24T03:41:45.333Z,10.96
2018-04-24T03:42:54.166Z,10.89
2018-04-24T03:44:02.997Z,10.92
2018-04-24T03:45:11.832Z,10.94
2018-04-24T03:46:20.666Z,10.97
2018-04-24T03:47:29.500Z,11.04
2018-04-24T03:48:38.337Z,10.99
2018-04-24T03:49:47.269Z,11
2018-04-24T03:50:56.101Z,10.97
2018-04-24T03:52:04.936Z,10.92
2018-04-24T03:53:13.771Z,11.03
2018-04-24T03:54:22.603Z,11.03
2018-04-24T03:55:31.537Z,10.99
2018-04-24T03:56:40.432Z,10.97
2018-04-24T03:57:49.267Z,10.99
2018-04-24T03:58:58.375Z,10.96
2018-04-24T04:00:07.210Z,11.02
2018-04-24T04:01:16.420Z,11.04
2018-04-24T04:02:25.529Z,11.04
2018-04-24T04:03:34.419Z,11.02
2018-04-24T04:04:43.528Z,11
2018-04-24T04:05:52.363Z,11.07
2018-04-24T04:07:01.299Z,11.02
2018-04-24T04:08:10.135Z,11.04
2018-04-24T04:09:18.966Z,10.96
2018-04-24T04:10:28.076Z,11.06
2018-04-24T04:11:37.183Z,11.06
2018-04-24T04:12:46.118Z,11.04
2018-04-24T04:13:54.949Z,11.06
2018-04-24T04:15:03.783Z,11.06
2018-04-24T04:16:12.893Z,11.03
2018-04-24T04:17:22.073Z,11.04
2018-04-24T04:18:31.206Z,11.09
2018-04-24T04:19:40.043Z,11.09
2018-04-24T04:20:49.152Z,11
2018-04-24T04:21:57.987Z,11.04
2018-04-24T04:23:07.370Z,11.02
2018-04-24T04:24:16.202Z,11.03
2018-04-24T04:25:25.035Z,11.09
2018-04-24T04:26:34.142Z,11.11
2018-04-24T04:27:42.974Z,11.02
2018-04-24T04:28:52.079Z,11.09
2018-04-24T04:30:01.012Z,11.1
2018-04-24T04:31:09.849Z,11.07
2018-04-24T04:32:18.683Z,11.11
2018-04-24T04:33:27.518Z,11.18
2018-04-24T04:34:36.622Z,11.04
2018-04-24T04:35:45.655Z,11.06
2018-04-24T04:36:54.843Z,11.04
2018-04-24T04:38:03.677Z,11.14
2018-04-24T04:39:12.512Z,11.07
2018-04-24T04:40:21.346Z,11.15
2018-04-24T04:41:30.582Z,11.17
2018-04-24T04:42:39.426Z,11.21
2018-04-24T04:43:48.258Z,10.99
2018-04-24T04:44:57.162Z,11.21
2018-04-24T04:46:06.276Z,11.21
2018-04-24T04:47:15.161Z,11.21
2018-04-24T04:48:24.979Z,11.14
2018-04-24T04:49:33.817Z,11.15
2018-04-24T04:50:42.650Z,11.21
2018-04-24T04:51:51.757Z,11.14
2018-04-24T04:53:00.590Z,11.11
2018-04-24T04:54:09.428Z,11.22
2018-04-24T04:55:18.262Z,11.24
2018-04-24T04:56:27.371Z,11.15
2018-04-24T04:57:36.481Z,11.1
2018-04-24T04:58:45.316Z,11.14
2018-04-24T04:59:54.427Z,11.17
2018-04-24T05:01:03.267Z,11.14
2018-04-24T05:02:12.100Z,11.27
2018-04-24T05:03:21.214Z,11.11
2018-04-24T05:04:30.326Z,11.22
2018-04-24T05:05:39.456Z,11.11
2018-04-24T05:06:48.293Z,11.06
2018-04-24T05:07:57.479Z,11.09
2018-04-24T05:09:06.234Z,11.19
2018-04-24T05:10:15.063Z,11.17
2018-04-24T05:11:23.896Z,11.09
2018-04-24T05:12:32.729Z,11.11
2018-04-24T05:13:41.563Z,11.1
2018-04-24T05:14:50.396Z,10.99
2018-04-24T05:15:59.234Z,11.11
2018-04-24T05:17:08.621Z,11.09
2018-04-24T05:18:17.512Z,11.1
2018-04-24T05:19:26.625Z,11.17
2018-04-24T05:20:35.454Z,11.14
2018-04-24T05:21:44.286Z,11.19
2018-04-24T05:22:53.127Z,11.24
2018-04-24T05:24:02.337Z,11.24
2018-04-24T05:25:11.173Z,11.24
2018-04-24T05:26:20.278Z,11.24
2018-04-24T05:27:29.111Z,11.27
2018-04-24T05:28:37.945Z,11.21
2018-04-24T05:29:46.830Z,11.28
2018-04-24T05:30:55.669Z,11.18
2018-04-24T05:32:04.502Z,11
2018-04-24T05:33:13.344Z,11.1
2018-04-24T05:34:22.452Z,11.06
2018-04-24T05:35:31.285Z,11.14
2018-04-24T05:36:40.120Z,11.15
2018-04-24T05:37:49.307Z,11.21
2018-04-24T05:38:58.959Z,11.1
2018-04-24T05:40:08.071Z,11.11
2018-04-24T05:41:16.974Z,10.96
2018-04-24T05:42:25.896Z,10.96
2018-04-24T05:43:34.932Z,11.02
2018-04-24T05:44:43.918Z,11.03
2018-04-24T05:45:53.256Z,11.04
2018-04-24T05:47:02.216Z,11.06
2018-04-24T05:48:11.134Z,10.92
2018-04-24T05:49:19.975Z,10.86
2018-04-24T05:50:29.096Z,10.89
2018-04-24T05:51:38.198Z,10.89
2018-04-24T05:52:47.034Z,10.85
2018-04-24T05:53:55.873Z,10.89
2018-04-24T05:55:04.706Z,10.84
2018-04-24T05:56:13.540Z,10.82
2018-04-24T05:57:22.379Z,10.86
2018-04-24T05:58:31.491Z,10.96
2018-04-24T05:59:40.324Z,10.86
2018-04-24T06:00:49.159Z,10.91
2018-04-24T06:01:57.992Z,10.94
2018-04-24T06:03:06.850Z,10.89
2018-04-24T06:04:16.455Z,10.91
2018-04-24T06:05:25.287Z,10.94
2018-04-24T06:06:34.170Z,11.04
2018-04-24T06:07:43.004Z,10.91
2018-04-24T06:08:51.838Z,10.86
2018-04-24T06:10:00.963Z,10.89
2018-04-24T06:11:10.340Z,10.91
2018-04-24T06:12:19.173Z,10.91
2018-04-24T06:13:28.293Z,10.97
2018-04-24T06:14:37.685Z,10.94
2018-04-24T06:15:46.799Z,10.97
2018-04-24T06:16:55.634Z,10.86
2018-04-24T06:18:04.480Z,10.92
2018-04-24T06:19:13.310Z,10.86
2018-04-24T06:20:22.145Z,10.81
2018-04-24T06:21:30.980Z,10.88
2018-04-24T06:22:40.126Z,10.97
2018-04-24T06:23:49.209Z,10.89
2018-04-24T06:24:58.318Z,11.04
2018-04-24T06:26:07.153Z,10.94
2018-04-24T06:27:15.988Z,10.84
2018-04-24T06:28:24.938Z,10.91
2018-04-24T06:29:33.936Z,11
2018-04-24T06:30:43.045Z,11.02
2018-04-24T06:31:51.876Z,11.02
2018-04-24T06:33:00.712Z,10.89
2018-04-24T06:34:09.543Z,10.88
2018-04-24T06:35:18.653Z,11.02
2018-04-24T06:36:27.481Z,10.97
2018-04-24T06:37:36.316Z,10.96
2018-04-24T06:38:45.147Z,10.99
2018-04-24T06:39:53.989Z,10.96
2018-04-24T06:41:03.142Z,11.04
2018-04-24T06:42:11.984Z,11.04
2018-04-24T06:43:20.809Z,11.19
2018-04-24T06:44:29.641Z,11.1
2018-04-24T06:45:38.760Z,11.06
2018-04-24T06:46:47.594Z,11.04
2018-04-24T06:47:56.427Z,11.1
2018-04-24T06:49:05.261Z,10.94
2018-04-24T06:50:14.093Z,11.03
2018-04-24T06:51:23.203Z,11.11
2018-04-24T06:52:32.035Z,11.04
2018-04-24T06:53:40.867Z,11.1
2018-04-24T06:54:49.701Z,11.09
2018-04-24T06:55:58.533Z,11.06
2018-04-24T06:57:07.366Z,11.06
2018-04-24T06:58:16.476Z,11.06
2018-04-24T06:59:25.591Z,11.04
2018-04-24T07:00:34.471Z,11.04
2018-04-24T07:01:44.163Z,11.18
2018-04-24T07:02:52.998Z,11.18
2018-04-24T07:04:02.378Z,11.09
2018-04-24T07:05:11.488Z,11.06
2018-04-24T07:06:20.696Z,11.1
2018-04-24T07:07:29.451Z,11.27
2018-04-24T07:08:38.283Z,11.22
2018-04-24T07:09:47.119Z,11.22
2018-04-24T07:10:55.954Z,11.19
2018-04-24T07:12:04.786Z,11.22
2018-04-24T07:13:13.618Z,11.22
2018-04-24T07:14:22.455Z,11.27
2018-04-24T07:15:31.564Z,11.22
2018-04-24T07:16:40.400Z,11.28
2018-04-24T07:17:49.514Z,11.21
2018-04-24T07:18:58.620Z,11.21
2018-04-24T07:20:07.454Z,11.29
2018-04-24T07:21:16.287Z,11.27
2018-04-24T07:22:25.398Z,11.29
2018-04-24T07:23:34.234Z,11.36
2018-04-24T07:24:43.071Z,11.35
2018-04-24T07:25:51.906Z,11.25
2018-04-24T07:27:01.345Z,11.33
2018-04-24T07:28:10.436Z,11.29
2018-04-24T07:29:19.272Z,11.33
2018-04-24T07:30:28.108Z,11.36
2018-04-24T07:31:36.943Z,11.32
2018-04-24T07:32:45.827Z,11.35
2018-04-24T07:33:54.659Z,11.4
2018-04-24T07:35:03.498Z,11.44
2018-04-24T07:36:12.604Z,11.51
2018-04-24T07:37:21.438Z,11.52
2018-04-24T07:38:30.272Z,11.51
2018-04-24T07:39:39.107Z,11.54
2018-04-24T07:40:48.214Z,11.51
2018-04-24T07:41:57.052Z,11.57
2018-04-24T07:43:05.885Z,11.52
2018-04-24T07:44:14.721Z,11.51
2018-04-24T07:45:23.553Z,11.54
2018-04-24T07:46:32.472Z,11.49
2018-04-24T07:47:41.916Z,11.57
2018-04-24T07:48:50.745Z,11.64
2018-04-24T07:49:59.731Z,11.72
2018-04-24T07:51:08.572Z,11.75
2018-04-24T07:52:17.680Z,11.78
2018-04-24T07:53:26.514Z,11.65
2018-04-24T07:54:35.346Z,11.67
2018-04-24T07:55:44.178Z,11.64
2018-04-24T07:56:53.285Z,11.69
2018-04-24T07:58:02.117Z,11.7
2018-04-24T07:59:10.950Z,11.65
2018-04-24T08:00:19.782Z,11.7
2018-04-24T08:01:28.616Z,11.76
2018-04-24T08:02:37.728Z,11.73
2018-04-24T08:03:46.563Z,11.8
2018-04-24T08:04:55.396Z,11.8
2018-04-24T08:06:04.229Z,11.7
2018-04-24T08:07:13.113Z,11.78
2018-04-24T08:08:22.225Z,11.76
2018-04-24T08:09:31.061Z,11.78
2018-04-24T08:10:40.168Z,11.82
2018-04-24T08:11:49.004Z,11.79
2018-04-24T08:12:57.844Z,11.78
2018-04-24T08:14:06.673Z,11.72
2018-04-24T08:15:15.508Z,11.67
2018-04-24T08:16:24.617Z,11.79
2018-04-24T08:17:33.452Z,11.79
2018-04-24T08:18:42.287Z,11.82
2018-04-24T08:19:51.122Z,11.79
2018-04-24T08:21:00.232Z,11.78
2018-04-24T08:22:09.086Z,11.76
2018-04-24T08:23:17.916Z,11.78
2018-04-24T08:24:26.801Z,11.8
2018-04-24T08:25:35.633Z,11.8
2018-04-24T08:26:44.467Z,11.85
2018-04-24T08:27:53.680Z,11.83
2018-04-24T08:29:02.517Z,11.91
2018-04-24T08:30:11.353Z,11.9
2018-04-24T08:31:20.186Z,11.91
2018-04-24T08:32:29.303Z,11.91
2018-04-24T08:33:38.157Z,12.05
2018-04-24T08:34:47.266Z,11.94
2018-04-24T08:35:56.100Z,11.96
2018-04-24T08:37:05.222Z,12.04
2018-04-24T08:38:14.053Z,11.94
2018-04-24T08:39:23.166Z,11.94
2018-04-24T08:40:32.271Z,11.86
2018-04-24T08:41:41.155Z,11.9
2018-04-24T08:42:49.987Z,11.82
2018-04-24T08:43:59.102Z,12.05
2018-04-24T08:45:07.942Z,11.94
2018-04-24T08:46:16.790Z,11.91
2018-04-24T08:47:25.611Z,11.86
2018-04-24T08:48:34.445Z,11.83
2018-04-24T08:49:43.328Z,11.85
2018-04-24T08:50:52.162Z,11.94
2018-04-24T08:52:00.999Z,11.96
2018-04-24T08:53:09.831Z,11.95
2018-04-24T08:54:18.669Z,11.96
2018-04-24T08:55:27.502Z,11.96
2018-04-24T08:56:36.338Z,11.96
2018-04-24T08:57:45.173Z,12.09
2018-04-24T08:58:54.286Z,12.01
2018-04-24T09:00:03.399Z,11.88
2018-04-24T09:01:12.238Z,11.98
2018-04-24T09:02:21.347Z,11.99
2018-04-24T09:03:30.183Z,12.01
2018-04-24T09:04:39.293Z,12.04
2018-04-24T09:05:48.402Z,12.09
2018-04-24T09:06:57.237Z,12.04
2018-04-24T09:08:06.083Z,12.12
2018-04-24T09:09:14.918Z,12.13
2018-04-24T09:10:23.752Z,12.17
2018-04-24T09:11:32.866Z,12.04
2018-04-24T09:12:41.707Z,12.02
2018-04-24T09:13:50.546Z,12.02
2018-04-24T09:14:59.669Z,12.14
2018-04-24T09:16:08.781Z,12.05
2018-04-24T09:17:17.893Z,12.1
2018-04-24T09:18:26.727Z,12.09
2018-04-24T09:19:35.836Z,12.16
2018-04-24T09:20:44.668Z,12.12
2018-04-24T09:21:53.502Z,12.07
2018-04-24T09:23:02.335Z,12.04
2018-04-24T09:24:11.171Z,12.09
2018-04-24T09:25:20.280Z,12.1
2018-04-24T09:26:29.117Z,12.17
2018-04-24T09:27:37.951Z,12.21
2018-04-24T09:28:46.787Z,12.16
2018-04-24T09:29:55.823Z,12.19
2018-04-24T09:31:05.039Z,12.17
2018-04-24T09:32:13.871Z,12.1
2018-04-24T09:33:22.821Z,12.07
2018-04-24T09:34:31.593Z,12.01
2018-04-24T09:35:40.701Z,11.96
2018-04-24T09:36:49.811Z,11.98
2018-04-24T09:37:58.919Z,12.01
2018-04-24T09:39:08.190Z,12.07
2018-04-24T09:40:16.994Z,12.04
2018-04-24T09:41:25.831Z,12.1
2018-04-24T09:42:34.943Z,12.09
2018-04-24T09:43:43.782Z,12.16
2018-04-24T09:44:52.889Z,12.13
2018-04-24T09:46:02.774Z,12.19
2018-04-24T09:47:11.907Z,12.09
2018-04-24T09:48:20.734Z,12.05
2018-04-24T09:49:29.953Z,12.04
2018-04-24T09:50:39.152Z,12.19
2018-04-24T09:51:47.987Z,12.14
2018-04-24T09:52:56.823Z,12.17
2018-04-24T09:54:05.668Z,12.17
2018-04-24T09:55:14.494Z,12.24
2018-04-24T09:56:23.330Z,12.28
2018-04-24T09:57:32.435Z,12.14
2018-04-24T09:58:41.276Z,12.17
2018-04-24T09:59:50.103Z,12.13
2018-04-24T10:00:58.938Z,12.19
2018-04-24T10:02:07.805Z,12.27
2018-04-24T10:03:16.617Z,12.17
2018-04-24T10:04:25.477Z,12.29
2018-04-24T10:05:34.909Z,12.27
2018-04-24T10:06:43.745Z,12.29
2018-04-24T10:07:52.652Z,12.27
2018-04-24T10:09:01.775Z,12.24
2018-04-24T10:10:10.883Z,12.24
2018-04-24T10:11:19.718Z,12.29
2018-04-24T10:12:28.554Z,12.24
2018-04-24T10:13:37.494Z,12.24
2018-04-24T10:14:47.450Z,12.32
2018-04-24T10:15:56.559Z,12.38
2018-04-24T10:17:05.398Z,12.32
2018-04-24T10:18:14.238Z,12.31
2018-04-24T10:19:23.063Z,12.27
2018-04-24T10:20:31.898Z,12.31
2018-04-24T10:21:40.733Z,12.42
2018-04-24T10:22:49.568Z,12.42
2018-04-24T10:23:58.506Z,12.49
2018-04-24T10:25:07.617Z,12.42
2018-04-24T10:26:16.454Z,12.34
2018-04-24T10:27:25.286Z,12.35
2018-04-24T10:28:34.397Z,12.37
2018-04-24T10:29:43.232Z,12.38
2018-04-24T10:30:52.342Z,12.47
2018-04-24T10:32:01.181Z,12.42
2018-04-24T10:33:10.012Z,12.38
2018-04-24T10:34:18.847Z,12.35
2018-04-24T10:35:27.681Z,12.32
2018-04-24T10:36:36.513Z,12.27
2018-04-24T10:37:45.347Z,12.41
2018-04-24T10:38:54.182Z,12.34
2018-04-24T10:40:03.301Z,12.34
2018-04-24T10:41:12.136Z,12.38
2018-04-24T10:42:20.970Z,12.31
2018-04-24T10:43:29.804Z,12.41
2018-04-24T10:44:38.916Z,12.42
2018-04-24T10:45:47.751Z,12.42
2018-04-24T10:46:56.588Z,12.32
2018-04-24T10:48:05.484Z,12.23
2018-04-24T10:49:14.259Z,12.29
2018-04-24T10:50:23.094Z,12.34
2018-04-24T10:51:31.999Z,12.34
2018-04-24T10:52:40.761Z,12.29
2018-04-24T10:53:49.593Z,12.32
2018-04-24T10:54:58.427Z,12.24
2018-04-24T10:56:07.544Z,12.27
2018-04-24T10:57:16.656Z,12.27
2018-04-24T10:58:26.045Z,12.24
2018-04-24T10:59:34.881Z,12.21
2018-04-24T11:00:43.874Z,12.37
2018-04-24T11:01:52.558Z,12.28
2018-04-24T11:03:01.674Z,12.29
2018-04-24T11:04:10.504Z,12.28
2018-04-24T11:05:19.336Z,12.29
2018-04-24T11:06:28.174Z,12.27
2018-04-24T11:07:37.006Z,12.34
2018-04-24T11:08:45.843Z,12.29
2018-04-24T11:09:54.697Z,12.41
2018-04-24T11:11:03.829Z,12.46
2018-04-24T11:12:12.672Z,12.57
2018-04-24T11:13:21.510Z,12.49
2018-04-24T11:14:30.344Z,12.49
2018-04-24T11:15:39.751Z,12.49
2018-04-24T11:16:48.862Z,12.47
2018-04-24T11:17:57.698Z,12.52
2018-04-24T11:19:06.533Z,12.54
2018-04-24T11:20:15.370Z,12.59
2018-04-24T11:21:24.290Z,12.56
2018-04-24T11:22:33.041Z,12.56
2018-04-24T11:23:41.878Z,12.54
2018-04-24T11:24:50.992Z,12.53
2018-04-24T11:25:59.824Z,12.56
2018-04-24T11:27:08.663Z,12.6
2018-04-24T11:28:17.508Z,12.65
2018-04-24T11:29:26.353Z,12.52
2018-04-24T11:30:35.190Z,12.53
2018-04-24T11:31:44.305Z,12.53
2018-04-24T11:32:53.140Z,12.41
2018-04-24T11:34:02.026Z,12.41
2018-04-24T11:35:10.861Z,12.42
2018-04-24T11:36:19.697Z,12.46
2018-04-24T11:37:28.534Z,12.49
2018-04-24T11:38:37.372Z,12.56
2018-04-24T11:39:46.212Z,12.39
2018-04-24T11:40:55.333Z,12.45
2018-04-24T11:42:04.175Z,12.37
2018-04-24T11:43:13.310Z,12.34
2018-04-24T11:44:22.161Z,12.39
2018-04-24T11:45:31.003Z,12.39
2018-04-24T11:46:39.841Z,12.45
2018-04-24T11:47:48.696Z,12.34
2018-04-24T11:48:57.532Z,12.32
2018-04-24T11:50:06.369Z,12.29
2018-04-24T11:51:15.579Z,12.27
2018-04-24T11:52:24.421Z,12.27
2018-04-24T11:53:33.532Z,12.28
2018-04-24T11:54:42.369Z,12.23
2018-04-24T11:55:51.206Z,12.27
2018-04-24T11:57:00.075Z,12.2
2018-04-24T11:58:09.152Z,12.35
2018-04-24T11:59:17.991Z,12.41
2018-04-24T12:00:26.826Z,12.41
2018-04-24T12:01:35.664Z,12.34
2018-04-24T12:02:44.989Z,12.34
2018-04-24T12:03:54.117Z,12.38
2018-04-24T12:05:03.224Z,12.28
2018-04-24T12:06:12.337Z,12.39
2018-04-24T12:07:21.468Z,12.41
2018-04-24T12:08:30.279Z,12.52
2018-04-24T12:09:39.392Z,12.64
2018-04-24T12:10:48.511Z,12.7
2018-04-24T12:11:57.345Z,12.68
2018-04-24T12:13:06.749Z,12.7
2018-04-24T12:14:15.582Z,12.67
2018-04-24T12:15:24.420Z,12.7
2018-04-24T12:16:33.264Z,12.78
2018-04-24T12:17:42.098Z,12.77
2018-04-24T12:18:50.934Z,12.83
2018-04-24T12:19:59.773Z,12.75
2018-04-24T12:21:08.614Z,12.68
2018-04-24T12:22:17.444Z,12.79
2018-04-24T12:23:26.844Z,12.82
2018-04-24T12:24:35.677Z,12.79
2018-04-24T12:25:44.714Z,12.89
2018-04-24T12:26:53.552Z,12.9
2018-04-24T12:28:02.389Z,12.83
2018-04-24T12:29:11.227Z,12.86
2018-04-24T12:30:20.059Z,12.86
2018-04-24T12:31:28.902Z,12.93
2018-04-24T12:32:37.733Z,12.95
2018-04-24T12:33:46.569Z,12.92
2018-04-24T12:34:55.402Z,12.92
2018-04-24T12:36:04.516Z,12.83
2018-04-24T12:37:13.354Z,12.79
2018-04-24T12:38:22.191Z,12.85
2018-04-24T12:39:31.028Z,12.89
2018-04-24T12:40:40.150Z,12.92
2018-04-24T12:41:48.986Z,12.78
2018-04-24T12:42:57.875Z,12.79
2018-04-24T12:44:06.712Z,12.83
2018-04-24T12:45:15.640Z,12.83
2018-04-24T12:46:25.243Z,12.86
2018-04-24T12:47:34.370Z,12.79
2018-04-24T12:48:43.205Z,12.78
2018-04-24T12:49:52.045Z,12.87
2018-04-24T12:51:01.155Z,12.78
2018-04-24T12:52:10.277Z,12.77
2018-04-24T12:53:19.129Z,12.85
2018-04-24T12:54:27.966Z,12.85
2018-04-24T12:55:36.837Z,12.93
2018-04-24T12:56:45.711Z,12.78
2018-04-24T12:57:55.777Z,12.83
2018-04-24T12:59:04.640Z,12.9
2018-04-24T13:00:13.728Z,12.85
2018-04-24T13:01:22.596Z,12.79
2018-04-24T13:02:32.281Z,12.83
2018-04-24T13:03:41.504Z,12.87
2018-04-24T13:04:51.317Z,13
2018-04-24T13:06:00.354Z,12.93
2018-04-24T13:07:09.713Z,12.96
2018-04-24T13:08:18.579Z,13.03
2018-04-24T13:09:27.774Z,13.03
2018-04-24T13:10:36.630Z,13.05
2018-04-24T13:11:45.530Z,13.12
2018-04-24T13:12:54.408Z,13.22
2018-04-24T13:14:04.026Z,13.17
2018-04-24T13:15:12.866Z,13.19
2018-04-24T13:16:21.768Z,13.05
2018-04-24T13:17:30.699Z,13.12
2018-04-24T13:18:39.808Z,13.17
2018-04-24T13:19:48.922Z,13.19
2018-04-24T13:20:57.763Z,13.26
2018-04-24T13:22:06.598Z,13.26
2018-04-24T13:23:15.534Z,13.22
2018-04-24T13:24:24.368Z,13.36
2018-04-24T13:25:33.860Z,13.33
2018-04-24T13:26:43.110Z,13.36
2018-04-24T13:27:51.946Z,13.38
2018-04-24T13:29:00.786Z,13.38
2018-04-24T13:30:09.901Z,13.49
2018-04-24T13:31:18.793Z,13.45
2018-04-24T13:32:27.583Z,13.52
2018-04-24T13:33:36.419Z,13.52
2018-04-24T13:34:45.735Z,13.63
2018-04-24T13:35:54.570Z,13.73
2018-04-24T13:37:03.404Z,13.78
2018-04-24T13:38:12.242Z,13.78
2018-04-24T13:39:21.078Z,13.81
2018-04-24T13:40:30.116Z,13.81
2018-04-24T13:41:38.952Z,13.79
2018-04-24T13:42:47.790Z,13.81
2018-04-24T13:43:56.623Z,13.82
2018-04-24T13:45:05.459Z,13.77
2018-04-24T13:46:14.404Z,13.81
2018-04-24T13:47:23.248Z,13.77
2018-04-24T13:48:32.083Z,13.81
2018-04-24T13:49:41.193Z,13.73
2018-04-24T13:50:50.029Z,13.81
2018-04-24T13:51:58.965Z,13.75
2018-04-24T13:53:07.803Z,13.79
2018-04-24T13:54:16.640Z,13.79
2018-04-24T13:55:25.521Z,13.77
2018-04-24T13:56:34.307Z,13.78
2018-04-24T13:57:43.144Z,13.71
2018-04-24T13:58:51.983Z,13.66
2018-04-24T14:00:00.820Z,13.77
2018-04-24T14:01:10.227Z,13.64
2018-04-24T14:02:19.063Z,13.67
2018-04-24T14:03:27.905Z,13.55
2018-04-24T14:04:36.746Z,13.64
2018-04-24T14:05:46.130Z,13.59
2018-04-24T14:06:54.972Z,13.57
2018-04-24T14:08:04.083Z,13.52
2018-04-24T14:09:13.197Z,13.64
2018-04-24T14:10:22.037Z,13.67
2018-04-24T14:11:30.873Z,13.75
2018-04-24T14:12:39.995Z,13.79
2018-04-24T14:13:48.828Z,13.87
2018-04-24T14:14:57.943Z,13.79
2018-04-24T14:16:07.326Z,13.89
2018-04-24T14:17:16.168Z,14
2018-04-24T14:18:25.016Z,14.12
2018-04-24T14:19:33.871Z,14.24
2018-04-24T14:20:42.720Z,14.2
2018-04-24T14:21:51.559Z,14.28
2018-04-24T14:23:00.689Z,14.24
2018-04-24T14:24:10.048Z,14.29
2018-04-24T14:25:18.885Z,14.2
2018-04-24T14:26:28.002Z,14.25
2018-04-24T14:27:36.836Z,14.15
2018-04-24T14:28:45.676Z,14.18
2018-04-24T14:29:54.793Z,14.25
2018-04-24T14:31:03.631Z,14.22
2018-04-24T14:32:12.743Z,14.27
2018-04-24T14:33:21.579Z,14.27
2018-04-24T14:34:30.515Z,14.37
2018-04-24T14:35:39.352Z,14.24
2018-04-24T14:36:48.187Z,14.24
2018-04-24T14:37:57.028Z,14.25
2018-04-24T14:39:06.138Z,14.21
2018-04-24T14:40:15.176Z,14.14
2018-04-24T14:41:24.013Z,14.18
2018-04-24T14:42:32.850Z,14.22
2018-04-24T14:43:41.688Z,14.25
2018-04-24T14:44:50.524Z,14.37
2018-04-24T14:45:59.737Z,14.29
2018-04-24T14:47:08.573Z,14.37
2018-04-24T14:48:17.409Z,14.25
2018-04-24T14:49:26.247Z,14.32
2018-04-24T14:50:35.358Z,14.36
2018-04-24T14:51:44.373Z,14.32
2018-04-24T14:52:53.086Z,14.28